createdAt,value
2017-11-19T00:01:45.861Z,93.70
2017-11-19T00:04:12.265Z,93.50
2017-11-19T00:06:38.692Z,93.50
2017-11-19T00:09:05.867Z,93.10
2017-11-19T00:11:32.296Z,93.10
2017-11-19T00:13:58.684Z,93.10
2017-11-19T00:16:25.108Z,93.20
2017-11-19T00:18:51.555Z,93.00
2017-11-19T00:21:17.995Z,93.10
2017-11-19T00:23:45.184Z,93.20
2017-11-19T00:26:11.617Z,93.20
2017-11-19T00:28:38.030Z,93.60
2017-11-19T00:31:04.466Z,93.40
2017-11-19T00:33:30.951Z,93.30
2017-11-19T00:35:57.396Z,93.00
2017-11-19T00:38:23.802Z,92.80
2017-11-19T00:40:50.217Z,92.70
2017-11-19T00:43:16.666Z,92.60
2017-11-19T00:45:43.045Z,92.50
2017-11-19T00:48:10.208Z,92.60
2017-11-19T00:50:37.381Z,92.70
2017-11-19T00:53:03.796Z,92.70
2017-11-19T00:55:30.228Z,92.60
2017-11-19T00:57:56.635Z,92.50
2017-11-19T01:00:23.809Z,92.30
2017-11-19T01:02:50.242Z,92.60
2017-11-19T01:05:21.592Z,93.20
2017-11-19T01:07:47.989Z,93.00
2017-11-19T01:10:14.401Z,92.70
2017-11-19T01:12:40.810Z,93.10
2017-11-19T01:15:07.219Z,93.80
2017-11-19T01:17:33.644Z,93.50
2017-11-19T01:20:00.776Z,93.20
2017-11-19T01:22:27.931Z,93.50
2017-11-19T01:24:55.077Z,93.90
2017-11-19T01:27:21.488Z,93.80
2017-11-19T01:29:47.913Z,93.50
2017-11-19T01:32:14.329Z,93.60
2017-11-19T01:34:40.725Z,92.80
2017-11-19T01:37:07.913Z,93.10
2017-11-19T01:39:34.344Z,93.10
2017-11-19T01:42:00.767Z,92.50
2017-11-19T01:44:27.194Z,92.60
2017-11-19T01:46:53.651Z,92.40
2017-11-19T01:49:20.089Z,92.30
2017-11-19T01:51:46.526Z,91.90
2017-11-19T01:54:12.974Z,91.70
2017-11-19T01:56:46.476Z,91.70
2017-11-19T01:59:12.933Z,92.00
2017-11-19T02:01:39.354Z,92.50
2017-11-19T02:04:05.799Z,92.50
2017-11-19T02:06:32.947Z,91.90
2017-11-19T02:09:00.091Z,91.70
2017-11-19T02:11:27.290Z,92.00
2017-11-19T02:13:53.713Z,91.70
2017-11-19T02:16:20.116Z,91.70
2017-11-19T02:18:47.241Z,91.70
2017-11-19T02:21:13.733Z,91.70
2017-11-19T02:23:40.166Z,91.80
2017-11-19T02:26:06.592Z,91.70
2017-11-19T02:28:33.002Z,91.30
2017-11-19T02:31:00.171Z,92.00
2017-11-19T02:33:26.596Z,92.00
2017-11-19T02:35:52.995Z,92.20
2017-11-19T02:38:19.426Z,92.30
2017-11-19T02:40:45.801Z,92.00
2017-11-19T02:43:12.234Z,92.30
2017-11-19T02:45:38.643Z,92.10
2017-11-19T02:48:05.832Z,92.30
2017-11-19T02:50:32.247Z,92.20
2017-11-19T02:52:58.631Z,93.10
2017-11-19T02:55:25.078Z,92.90
2017-11-19T02:57:51.485Z,93.00
2017-11-19T03:00:17.909Z,93.40
2017-11-19T03:02:44.332Z,92.80
2017-11-19T03:05:10.728Z,92.60
2017-11-19T03:07:37.907Z,92.40
2017-11-19T03:10:04.325Z,92.80
2017-11-19T03:12:30.724Z,92.20
2017-11-19T03:14:57.905Z,91.90
2017-11-19T03:17:24.287Z,91.80
2017-11-19T03:19:50.740Z,91.90
2017-11-19T03:22:17.155Z,91.70
2017-11-19T03:24:43.577Z,91.50
2017-11-19T03:27:10.029Z,91.80
2017-11-19T03:29:36.466Z,91.70
2017-11-19T03:32:02.880Z,91.70
2017-11-19T03:34:29.282Z,92.00
2017-11-19T03:36:55.688Z,91.90
2017-11-19T03:39:22.829Z,92.10
2017-11-19T03:41:50.102Z,91.70
2017-11-19T03:44:16.518Z,91.70
2017-11-19T03:46:43.651Z,92.00
2017-11-19T03:49:10.078Z,92.00
2017-11-19T03:51:36.494Z,92.60
2017-11-19T03:54:02.940Z,92.60
2017-11-19T03:56:29.365Z,93.10
2017-11-19T03:58:55.796Z,93.30
2017-11-19T04:01:22.202Z,92.90
2017-11-19T04:03:48.592Z,93.70
2017-11-19T04:06:15.817Z,93.60
2017-11-19T04:08:42.224Z,93.60
2017-11-19T04:11:08.615Z,93.30
2017-11-19T04:13:35.773Z,93.90
2017-11-19T04:16:02.197Z,93.90
2017-11-19T04:18:29.317Z,93.20
2017-11-19T04:20:55.708Z,93.20
2017-11-19T04:23:22.140Z,92.50
2017-11-19T04:25:48.553Z,93.20
2017-11-19T04:28:14.993Z,93.20
2017-11-19T04:30:41.487Z,93.00
2017-11-19T04:33:07.925Z,93.00
2017-11-19T04:35:34.399Z,93.00
2017-11-19T04:38:01.584Z,92.60
2017-11-19T04:40:28.765Z,92.40
2017-11-19T04:42:55.176Z,92.30
2017-11-19T04:45:21.598Z,92.60
2017-11-19T04:47:48.011Z,92.60
2017-11-19T04:50:14.429Z,92.50
2017-11-19T04:52:40.833Z,92.00
2017-11-19T04:55:07.241Z,91.80
2017-11-19T04:57:33.665Z,91.90
2017-11-19T05:00:00.053Z,92.00
2017-11-19T05:02:26.471Z,92.50
2017-11-19T05:04:53.604Z,92.00
2017-11-19T05:07:20.013Z,92.00
2017-11-19T05:09:46.462Z,92.00
2017-11-19T05:12:12.929Z,91.50
2017-11-19T05:14:40.105Z,91.30
2017-11-19T05:17:06.533Z,91.70
2017-11-19T05:19:32.911Z,91.30
2017-11-19T05:21:59.301Z,91.30
2017-11-19T05:24:25.743Z,91.20
2017-11-19T05:26:52.145Z,91.30
2017-11-19T05:29:18.535Z,91.20
2017-11-19T05:31:44.953Z,91.10
2017-11-19T05:34:11.402Z,91.10
2017-11-19T05:36:37.808Z,91.10
2017-11-19T05:39:04.213Z,90.90
2017-11-19T05:41:30.600Z,91.20
2017-11-19T05:43:57.001Z,91.30
2017-11-19T05:46:23.434Z,90.90
2017-11-19T05:48:49.860Z,90.80
2017-11-19T05:51:17.012Z,91.00
2017-11-19T05:53:43.424Z,91.00
2017-11-19T05:56:09.845Z,91.00
2017-11-19T05:58:36.998Z,90.90
2017-11-19T06:01:04.149Z,90.80
2017-11-19T06:03:31.284Z,90.70
2017-11-19T06:05:57.696Z,90.70
2017-11-19T06:08:24.118Z,90.60
2017-11-19T06:10:50.572Z,90.50
2017-11-19T06:13:16.973Z,90.30
2017-11-19T06:15:43.354Z,90.60
2017-11-19T06:18:10.508Z,90.80
2017-11-19T06:20:37.648Z,90.80
2017-11-19T06:23:04.789Z,90.80
2017-11-19T06:25:31.928Z,90.90
2017-11-19T06:27:58.324Z,90.60
2017-11-19T06:30:24.721Z,90.50
2017-11-19T06:32:51.888Z,90.60
2017-11-19T06:35:18.328Z,90.50
2017-11-19T06:37:44.831Z,90.60
2017-11-19T06:40:11.956Z,90.60
2017-11-19T06:42:38.356Z,90.60
2017-11-19T06:45:04.789Z,90.40
2017-11-19T06:47:31.207Z,90.40
2017-11-19T06:49:57.631Z,90.50
2017-11-19T06:52:24.049Z,90.40
2017-11-19T06:54:50.513Z,90.30
2017-11-19T06:57:16.941Z,90.60
2017-11-19T06:59:43.344Z,90.50
2017-11-19T07:02:09.782Z,90.00
2017-11-19T07:04:36.194Z,90.70
2017-11-19T07:07:02.624Z,90.90
2017-11-19T07:09:29.004Z,91.00
2017-11-19T07:11:55.437Z,90.90
2017-11-19T07:14:21.854Z,90.40
2017-11-19T07:16:48.306Z,90.80
2017-11-19T07:19:14.702Z,90.90
2017-11-19T07:21:41.132Z,90.70
2017-11-19T07:24:07.570Z,90.50
2017-11-19T07:26:33.988Z,90.40
2017-11-19T07:29:00.453Z,90.40
2017-11-19T07:31:26.898Z,90.40
2017-11-19T07:33:53.488Z,90.30
2017-11-19T07:36:19.942Z,90.00
2017-11-19T07:38:46.360Z,90.30
2017-11-19T07:41:12.817Z,90.20
2017-11-19T07:43:39.265Z,90.50
2017-11-19T07:46:05.824Z,90.40
2017-11-19T07:48:32.224Z,90.40
2017-11-19T07:50:58.677Z,90.40
2017-11-19T07:53:25.142Z,90.60
2017-11-19T07:55:52.304Z,91.00
2017-11-19T07:58:18.796Z,91.00
2017-11-19T08:00:45.243Z,91.00
2017-11-19T08:03:11.704Z,91.00
2017-11-19T08:05:38.183Z,91.10
2017-11-19T08:08:04.597Z,91.60
2017-11-19T08:10:31.059Z,91.50
2017-11-19T08:12:57.467Z,91.20
2017-11-19T08:15:23.896Z,91.00
2017-11-19T08:17:50.308Z,90.40
2017-11-19T08:20:16.761Z,90.20
2017-11-19T08:22:43.190Z,90.20
2017-11-19T08:25:09.609Z,90.90
2017-11-19T08:27:36.105Z,90.60
2017-11-19T08:30:02.551Z,91.00
2017-11-19T08:32:29.740Z,91.10
2017-11-19T08:34:56.124Z,91.10
2017-11-19T08:37:22.551Z,91.30
2017-11-19T08:39:48.973Z,90.80
2017-11-19T08:42:15.426Z,90.50
2017-11-19T08:44:42.560Z,91.30
2017-11-19T08:47:09.013Z,91.00
2017-11-19T08:49:36.157Z,91.10
2017-11-19T08:52:02.576Z,91.10
2017-11-19T08:54:28.965Z,91.00
2017-11-19T08:56:56.196Z,90.80
2017-11-19T08:59:23.384Z,91.00
2017-11-19T09:01:49.776Z,90.90
2017-11-19T09:04:16.933Z,91.10
2017-11-19T09:06:43.358Z,91.00
2017-11-19T09:09:10.526Z,90.50
2017-11-19T09:11:36.955Z,90.50
2017-11-19T09:14:03.356Z,90.80
2017-11-19T09:16:29.747Z,91.30
2017-11-19T09:18:56.180Z,90.80
2017-11-19T09:21:22.608Z,90.90
2017-11-19T09:23:49.032Z,91.20
2017-11-19T09:26:15.437Z,91.40
2017-11-19T09:28:42.597Z,92.00
2017-11-19T09:31:08.989Z,91.90
2017-11-19T09:33:35.385Z,91.90
2017-11-19T09:36:01.903Z,90.70
2017-11-19T09:38:28.316Z,89.50
2017-11-19T09:40:55.473Z,89.60
2017-11-19T09:43:22.001Z,89.50
2017-11-19T09:45:48.444Z,89.90
2017-11-19T09:48:15.532Z,90.00
2017-11-19T09:50:42.150Z,90.40
2017-11-19T09:53:09.439Z,88.30
2017-11-19T09:55:35.935Z,88.30
2017-11-19T09:58:02.480Z,86.60
2017-11-19T10:00:29.132Z,84.60
2017-11-19T10:02:55.595Z,84.10
2017-11-19T10:05:22.074Z,82.20
2017-11-19T10:07:48.776Z,80.90
2017-11-19T10:10:15.309Z,79.00
2017-11-19T10:12:41.991Z,79.40
2017-11-19T10:15:08.439Z,79.00
2017-11-19T10:17:34.897Z,77.20
2017-11-19T10:20:01.285Z,72.60
2017-11-19T10:22:27.702Z,72.20
2017-11-19T10:24:54.380Z,70.30
2017-11-19T10:27:21.612Z,63.00
2017-11-19T10:29:48.273Z,63.00
2017-11-19T10:32:14.706Z,62.20
2017-11-19T10:34:41.133Z,61.10
2017-11-19T10:37:07.538Z,66.50
2017-11-19T10:39:33.969Z,68.90
2017-11-19T10:42:00.357Z,70.30
2017-11-19T10:44:26.765Z,71.50
2017-11-19T10:46:53.192Z,72.40
2017-11-19T10:49:19.596Z,72.50
2017-11-19T10:51:46.008Z,74.40
2017-11-19T10:54:13.162Z,76.10
2017-11-19T10:56:40.300Z,72.00
2017-11-19T10:59:06.749Z,71.90
2017-11-19T11:01:33.882Z,59.60
2017-11-19T11:04:00.297Z,59.60
2017-11-19T11:06:26.724Z,55.70
2017-11-19T11:08:53.095Z,55.60
2017-11-19T11:11:20.272Z,55.60
2017-11-19T11:13:46.669Z,55.50
2017-11-19T11:16:13.046Z,50.70
2017-11-19T11:18:39.568Z,49.00
2017-11-19T11:21:05.948Z,48.00
2017-11-19T11:23:32.344Z,51.00
2017-11-19T11:25:58.779Z,55.00
2017-11-19T11:28:25.205Z,58.60
2017-11-19T11:30:51.640Z,60.00
2017-11-19T11:33:18.052Z,63.00
2017-11-19T11:35:44.459Z,65.10
2017-11-19T11:38:11.590Z,68.40
2017-11-19T11:40:37.960Z,67.70
2017-11-19T11:43:05.169Z,70.10
2017-11-19T11:45:31.629Z,70.10
2017-11-19T11:47:58.052Z,70.60
2017-11-19T11:50:25.398Z,71.60
2017-11-19T11:52:51.829Z,72.50
2017-11-19T11:55:18.260Z,72.80
2017-11-19T11:57:44.706Z,72.80
2017-11-19T12:00:11.154Z,72.40
2017-11-19T12:02:38.340Z,72.00
2017-11-19T12:05:04.785Z,72.00
2017-11-19T12:07:31.184Z,71.40
2017-11-19T12:09:58.564Z,67.50
2017-11-19T12:12:25.024Z,62.60
2017-11-19T12:14:52.181Z,60.50
2017-11-19T12:17:18.608Z,60.50
2017-11-19T12:19:45.003Z,63.00
2017-11-19T12:22:11.436Z,64.70
2017-11-19T12:24:37.844Z,68.40
2017-11-19T12:27:05.056Z,71.50
2017-11-19T12:29:31.525Z,71.40
2017-11-19T12:31:58.717Z,59.50
2017-11-19T12:34:26.000Z,52.20
2017-11-19T12:36:52.740Z,52.00
2017-11-19T12:39:19.933Z,41.40
2017-11-19T12:41:47.085Z,38.80
2017-11-19T12:44:13.490Z,38.70
2017-11-19T12:46:39.906Z,36.50
2017-11-19T12:49:06.335Z,36.60
2017-11-19T12:51:32.777Z,32.60
2017-11-19T12:53:59.202Z,30.70
2017-11-19T12:56:25.631Z,31.00
2017-11-19T12:58:52.032Z,30.20
2017-11-19T13:01:25.524Z,29.30
2017-11-19T13:03:51.960Z,29.80
2017-11-19T13:06:18.408Z,29.60
2017-11-19T13:08:44.857Z,29.00
2017-11-19T13:11:11.258Z,30.30
2017-11-19T13:13:37.701Z,32.40
2017-11-19T13:16:04.129Z,35.60
2017-11-19T13:18:30.529Z,40.10
2017-11-19T13:20:57.666Z,44.50
2017-11-19T13:23:24.109Z,44.50
2017-11-19T13:25:51.319Z,49.90
2017-11-19T13:28:17.709Z,49.90
2017-11-19T13:30:44.865Z,54.40
2017-11-19T13:33:12.017Z,56.50
2017-11-19T13:35:45.318Z,56.40
2017-11-19T13:38:11.701Z,58.20
2017-11-19T13:40:38.126Z,60.20
2017-11-19T13:43:04.569Z,60.70
2017-11-19T13:45:30.994Z,62.40
2017-11-19T13:47:57.416Z,61.40
2017-11-19T13:50:23.799Z,62.40
2017-11-19T13:52:50.237Z,61.70
2017-11-19T13:55:16.650Z,61.00
2017-11-19T13:57:43.791Z,65.20
2017-11-19T14:00:10.213Z,66.10
2017-11-19T14:02:36.628Z,65.50
2017-11-19T14:05:03.066Z,66.70
2017-11-19T14:07:29.508Z,65.10
2017-11-19T14:09:56.685Z,67.10
2017-11-19T14:12:23.937Z,68.20
2017-11-19T14:14:50.373Z,68.20
2017-11-19T14:17:16.800Z,68.00
2017-11-19T14:19:43.981Z,66.60
2017-11-19T14:22:10.493Z,66.50
2017-11-19T14:24:37.717Z,68.30
2017-11-19T14:27:04.194Z,68.30
2017-11-19T14:29:30.609Z,69.50
2017-11-19T14:31:57.795Z,69.50
2017-11-19T14:34:24.224Z,69.30
2017-11-19T14:36:50.640Z,69.60
2017-11-19T14:39:17.042Z,69.90
2017-11-19T14:41:43.461Z,69.70
2017-11-19T14:44:09.864Z,69.80
2017-11-19T14:46:36.244Z,69.00
2017-11-19T14:49:03.453Z,68.40
2017-11-19T14:51:29.885Z,68.00
2017-11-19T14:53:56.295Z,67.80
2017-11-19T14:56:22.751Z,67.00
2017-11-19T14:58:49.157Z,67.90
2017-11-19T15:01:15.639Z,68.30
2017-11-19T15:03:42.050Z,69.10
2017-11-19T15:06:08.476Z,69.40
2017-11-19T15:08:35.879Z,69.70
2017-11-19T15:11:03.037Z,71.70
2017-11-19T15:13:30.201Z,71.50
2017-11-19T15:15:56.609Z,71.50
2017-11-19T15:18:23.747Z,71.50
2017-11-19T15:20:50.161Z,71.50
2017-11-19T15:23:16.621Z,70.20
2017-11-19T15:25:43.880Z,70.20
2017-11-19T15:28:11.082Z,69.50
2017-11-19T15:30:37.500Z,69.40
2017-11-19T15:33:03.934Z,69.00
2017-11-19T15:35:30.344Z,68.10
2017-11-19T15:37:57.510Z,68.00
2017-11-19T15:40:23.942Z,67.90
2017-11-19T15:42:50.382Z,67.50
2017-11-19T15:45:16.905Z,68.40
2017-11-19T15:47:43.307Z,68.60
2017-11-19T15:50:09.721Z,70.00
2017-11-19T15:52:36.158Z,70.00
2017-11-19T15:55:02.556Z,71.00
2017-11-19T15:57:28.964Z,71.70
2017-11-19T15:59:56.151Z,72.60
2017-11-19T16:02:22.576Z,72.60
2017-11-19T16:04:48.968Z,72.90
2017-11-19T16:07:16.109Z,74.40
2017-11-19T16:09:42.523Z,74.30
2017-11-19T16:12:08.936Z,74.70
2017-11-19T16:14:35.336Z,74.90
2017-11-19T16:17:01.753Z,75.50
2017-11-19T16:19:28.941Z,76.30
2017-11-19T16:21:55.342Z,76.30
2017-11-19T16:24:22.533Z,76.80
2017-11-19T16:26:48.976Z,76.60
2017-11-19T16:29:15.404Z,76.50
2017-11-19T16:31:41.826Z,76.90
2017-11-19T16:34:08.213Z,75.10
2017-11-19T16:36:35.370Z,71.80
2017-11-19T16:39:02.617Z,72.30
2017-11-19T16:41:29.808Z,72.30
2017-11-19T16:43:56.213Z,72.20
2017-11-19T16:46:22.620Z,72.00
2017-11-19T16:48:49.014Z,72.60
2017-11-19T16:51:15.467Z,73.70
2017-11-19T16:53:41.901Z,74.00
2017-11-19T16:56:08.301Z,74.10
2017-11-19T16:58:34.705Z,73.90
2017-11-19T17:01:01.844Z,74.20
2017-11-19T17:03:29.030Z,74.40
2017-11-19T17:05:55.465Z,74.30
2017-11-19T17:08:21.897Z,74.80
2017-11-19T17:10:48.294Z,75.00
2017-11-19T17:13:15.475Z,75.80
2017-11-19T17:15:41.865Z,75.80
2017-11-19T17:18:08.297Z,76.50
2017-11-19T17:20:34.702Z,77.70
2017-11-19T17:23:01.854Z,77.40
2017-11-19T17:25:28.392Z,77.40
2017-11-19T17:27:54.781Z,77.40
2017-11-19T17:30:21.221Z,78.00
2017-11-19T17:32:47.794Z,77.80
2017-11-19T17:35:14.196Z,78.20
2017-11-19T17:37:40.628Z,78.00
2017-11-19T17:40:07.054Z,78.10
2017-11-19T17:42:33.488Z,77.60
2017-11-19T17:44:59.897Z,77.60
2017-11-19T17:47:27.020Z,77.40
2017-11-19T17:49:53.415Z,77.30
2017-11-19T17:52:19.861Z,77.50
2017-11-19T17:54:53.092Z,77.30
2017-11-19T17:57:19.506Z,77.30
2017-11-19T17:59:45.902Z,76.80
2017-11-19T18:02:12.317Z,76.60
2017-11-19T18:04:38.725Z,77.00
2017-11-19T18:07:05.885Z,77.00
2017-11-19T18:09:33.025Z,77.00
2017-11-19T18:12:00.189Z,77.00
2017-11-19T18:14:26.585Z,77.70
2017-11-19T18:16:53.005Z,73.60
2017-11-19T18:19:19.404Z,72.10
2017-11-19T18:21:45.811Z,72.30
2017-11-19T18:24:12.993Z,72.60
2017-11-19T18:26:39.425Z,72.60
2017-11-19T18:29:05.842Z,72.50
2017-11-19T18:31:32.256Z,72.10
2017-11-19T18:33:59.388Z,73.60
2017-11-19T18:36:25.905Z,73.60
2017-11-19T18:38:52.322Z,74.40
2017-11-19T18:41:18.741Z,74.60
2017-11-19T18:43:45.163Z,74.70
2017-11-19T18:46:11.577Z,75.00
2017-11-19T18:48:38.757Z,75.10
2017-11-19T18:51:05.172Z,75.00
2017-11-19T18:53:32.321Z,75.30
2017-11-19T18:55:58.761Z,75.30
2017-11-19T18:58:25.228Z,76.10
2017-11-19T19:00:51.869Z,76.60
2017-11-19T19:03:19.284Z,77.20
2017-11-19T19:05:45.777Z,77.10
2017-11-19T19:08:12.213Z,77.70
2017-11-19T19:10:38.637Z,77.90
2017-11-19T19:13:05.068Z,78.20
2017-11-19T19:15:31.501Z,77.80
2017-11-19T19:17:57.896Z,78.70
2017-11-19T19:20:24.315Z,78.50
2017-11-19T19:22:50.729Z,78.00
2017-11-19T19:25:17.958Z,78.80
2017-11-19T19:27:45.144Z,78.50
2017-11-19T19:30:12.314Z,78.40
2017-11-19T19:32:38.746Z,78.40
2017-11-19T19:35:05.144Z,78.10
2017-11-19T19:37:31.561Z,78.60
2017-11-19T19:39:58.003Z,78.90
2017-11-19T19:42:24.464Z,78.90
2017-11-19T19:44:50.924Z,79.30
2017-11-19T19:47:17.344Z,79.40
2017-11-19T19:49:43.761Z,79.40
2017-11-19T19:52:10.205Z,79.40
2017-11-19T19:54:36.607Z,79.70
2017-11-19T19:57:03.008Z,79.90
2017-11-19T19:59:29.629Z,79.80
2017-11-19T20:01:56.122Z,79.90
2017-11-19T20:04:23.292Z,79.80
2017-11-19T20:06:49.864Z,79.80
2017-11-19T20:09:17.079Z,80.00
2017-11-19T20:11:43.472Z,79.90
2017-11-19T20:14:09.909Z,79.20
2017-11-19T20:16:37.008Z,79.90
2017-11-19T20:19:03.418Z,79.30
2017-11-19T20:21:29.838Z,79.50
2017-11-19T20:23:57.001Z,79.90
2017-11-19T20:26:23.465Z,79.90
2017-11-19T20:28:49.889Z,79.80
2017-11-19T20:31:16.321Z,79.50
2017-11-19T20:33:42.737Z,79.10
2017-11-19T20:36:09.145Z,79.50
2017-11-19T20:38:36.313Z,79.20
2017-11-19T20:41:02.813Z,79.20
2017-11-19T20:43:29.364Z,79.80
2017-11-19T20:45:56.782Z,79.60
2017-11-19T20:48:23.204Z,79.60
2017-11-19T20:50:49.610Z,79.40
2017-11-19T20:53:16.049Z,79.30
2017-11-19T20:55:42.470Z,79.70
2017-11-19T20:58:09.624Z,80.20
2017-11-19T21:00:36.075Z,80.20
2017-11-19T21:03:02.589Z,79.90
2017-11-19T21:05:29.047Z,79.80
2017-11-19T21:07:55.466Z,78.80
2017-11-19T21:10:21.875Z,79.20
2017-11-19T22:34:45.501Z,79.70
2017-11-19T22:37:11.949Z,87.00
2017-11-19T22:39:38.374Z,87.30
2017-11-19T22:42:04.854Z,87.00
2017-11-19T22:44:31.361Z,87.20
2017-11-19T22:46:57.788Z,87.80
2017-11-19T22:49:24.190Z,87.90
2017-11-19T22:51:51.374Z,88.60
2017-11-19T22:54:17.768Z,88.50
2017-11-19T22:56:44.928Z,87.80
2017-11-19T22:59:12.069Z,87.20
2017-11-19T23:01:39.242Z,87.30
2017-11-19T23:04:05.644Z,87.30
2017-11-19T23:06:32.929Z,87.40
2017-11-19T23:08:59.339Z,87.10
2017-11-19T23:11:26.589Z,86.30
2017-11-19T23:13:53.736Z,86.00
2017-11-19T23:16:20.903Z,87.40
2017-11-19T23:18:48.069Z,86.50
2017-11-19T23:21:14.465Z,86.50
2017-11-19T23:23:41.619Z,86.90
2017-11-19T23:26:08.037Z,86.80
2017-11-19T23:28:34.422Z,87.20
2017-11-19T23:31:00.830Z,86.30
2017-11-19T23:33:27.995Z,86.30
2017-11-19T23:35:54.405Z,86.20
2017-11-19T23:38:21.529Z,86.40
2017-11-19T23:40:47.933Z,86.40
2017-11-19T23:43:14.360Z,85.90
2017-11-19T23:45:40.780Z,84.80
2017-11-19T23:48:07.168Z,85.30
2017-11-19T23:50:33.599Z,84.00
2017-11-19T23:52:59.989Z,84.30
2017-11-19T23:55:26.401Z,84.50
2017-11-19T23:57:52.795Z,84.10
